Time;durP1;ratioP1;P1;durP2;ratioP2;P2;SDS_P1;SDS_P2;PMS_P1;PMS_P2;Temp;Humidity;BMP_temperature;BMP_pressure;BME280_temperature;BME280_humidity;BME280_pressure;Samples;Min_cycle;Max_cycle;Signal;HPM_P1;HPM_P2
2023/09/08 00:00:09;;;;;;;16.33;8.45;;;;;;;17.29;100.00;101619.19;5067152;28;20031;-74
2023/09/08 00:02:34;;;;;;;15.73;8.13;;;;;;;17.25;100.00;101623.38;5062843;28;20028;-74
2023/09/08 00:05:00;;;;;;;16.92;10.35;;;;;;;17.24;100.00;101613.66;5068972;28;20656;-74
2023/09/08 00:07:25;;;;;;;17.13;9.82;;;;;;;17.21;100.00;101616.78;5061681;28;20087;-74
2023/09/08 00:09:51;;;;;;;18.88;9.55;;;;;;;17.18;100.00;101617.22;5049936;28;20041;-74
2023/09/08 00:12:16;;;;;;;16.20;9.40;;;;;;;17.11;100.00;101620.00;5049737;28;20041;-74
2023/09/08 00:14:42;;;;;;;14.20;9.85;;;;;;;17.05;100.00;101610.91;5048619;28;20029;-74
2023/09/08 00:17:08;;;;;;;16.23;9.02;;;;;;;17.00;100.00;101616.16;5058845;28;20064;-74
2023/09/08 00:19:33;;;;;;;15.20;8.80;;;;;;;17.00;100.00;101618.84;5054923;28;20032;-74
2023/09/08 00:21:58;;;;;;;15.13;8.88;;;;;;;17.01;100.00;101625.88;5062358;28;20033;-74
2023/09/08 00:24:24;;;;;;;13.80;8.55;;;;;;;17.04;100.00;101630.81;5051209;28;20480;-74
2023/09/08 00:26:49;;;;;;;13.52;8.00;;;;;;;17.06;100.00;101619.84;5050420;28;20384;-74
2023/09/08 00:29:15;;;;;;;15.82;8.80;;;;;;;17.00;100.00;101609.91;5054625;28;20032;-74
2023/09/08 00:31:42;;;;;;;15.35;8.73;;;;;;;17.05;100.00;101624.38;5067181;28;20384;-74
2023/09/08 00:34:07;;;;;;;15.32;8.52;;;;;;;17.03;100.00;101626.50;5057933;28;20028;-74
2023/09/08 00:36:33;;;;;;;15.65;9.15;;;;;;;16.98;100.00;101623.63;5061295;28;20032;-74
2023/09/08 00:38:58;;;;;;;13.95;8.98;;;;;;;17.03;100.00;101626.50;5050790;28;20152;-74
2023/09/08 00:41:23;;;;;;;16.48;8.77;;;;;;;17.00;100.00;101629.63;5060930;28;20072;-74
2023/09/08 00:43:49;;;;;;;15.25;9.23;;;;;;;16.89;100.00;101619.53;5060407;28;20506;-74
2023/09/08 00:46:16;;;;;;;19.40;10.18;;;;;;;16.88;100.00;101623.28;5068530;28;21178;-74
2023/09/08 00:48:42;;;;;;;13.02;8.52;;;;;;;16.91;100.00;101619.34;5049606;28;20037;-74
2023/09/08 00:51:09;;;;;;;15.95;8.65;;;;;;;16.82;100.00;101608.00;5062381;28;20063;-74
2023/09/08 00:53:35;;;;;;;14.80;8.73;;;;;;;16.97;100.00;101613.06;5068194;28;20060;-74
2023/09/08 00:56:02;;;;;;;14.95;8.73;;;;;;;16.91;100.00;101622.84;5063145;28;20058;-74
2023/09/08 00:58:28;;;;;;;17.90;9.68;;;;;;;16.79;100.00;101614.69;5068525;28;20056;-74
2023/09/08 01:00:54;;;;;;;15.05;8.70;;;;;;;16.82;100.00;101613.38;5067251;28;20422;-74
2023/09/08 01:03:20;;;;;;;18.00;8.85;;;;;;;16.73;100.00;101618.19;5063593;28;20021;-74
2023/09/08 01:05:46;;;;;;;14.95;7.82;;;;;;;16.66;100.00;101614.72;5049233;28;20400;-74
2023/09/08 01:08:13;;;;;;;16.73;8.88;;;;;;;16.62;100.00;101610.81;5062401;28;20364;-74
2023/09/08 01:10:41;;;;;;;16.83;9.05;;;;;;;16.64;100.00;101606.88;5061142;28;20033;-74
2023/09/08 01:13:06;;;;;;;16.48;8.70;;;;;;;16.68;100.00;101607.25;5047857;28;20033;-74
2023/09/08 01:15:31;;;;;;;14.95;7.88;;;;;;;16.65;100.00;101602.31;5049148;28;20078;-74
2023/09/08 01:17:57;;;;;;;14.57;8.80;;;;;;;16.68;100.00;101611.81;5051970;28;20060;-74
2023/09/08 01:20:30;;;;;;;13.60;7.75;;;;;;;16.66;100.00;101612.03;5070190;28;20032;-74
2023/09/08 01:23:29;;;;;;;16.35;9.20;;;;;;;16.61;100.00;101610.00;5070526;28;20478;-74
2023/09/08 01:26:03;;;;;;;16.92;9.07;;;;;;;16.63;100.00;101620.53;5012207;28;20477;-74
2023/09/08 01:28:30;;;;;;;13.90;8.18;;;;;;;16.59;100.00;101614.78;5058241;28;20040;-74
2023/09/08 01:30:56;;;;;;;15.88;9.10;;;;;;;16.52;100.00;101616.69;5057915;28;20033;-74
2023/09/08 01:33:22;;;;;;;15.52;8.35;;;;;;;16.51;100.00;101616.91;5063757;28;20681;-74
2023/09/08 01:35:48;;;;;;;16.38;9.35;;;;;;;16.50;100.00;101615.25;5058408;28;20123;-74
2023/09/08 01:38:13;;;;;;;15.13;8.38;;;;;;;16.53;100.00;101610.28;5067172;28;20029;-74
2023/09/08 01:40:38;;;;;;;16.08;9.50;;;;;;;16.53;100.00;101622.88;5052648;28;20151;-74
2023/09/08 01:43:04;;;;;;;19.13;10.48;;;;;;;16.43;100.00;101618.00;5065831;28;20086;-74
2023/09/08 01:45:30;;;;;;;18.13;10.50;;;;;;;16.46;100.00;101620.25;5071592;28;20035;-74
2023/09/08 01:47:55;;;;;;;17.15;10.15;;;;;;;16.37;100.00;101618.84;5071604;28;20027;-74
2023/09/08 01:50:22;;;;;;;17.98;9.95;;;;;;;16.34;100.00;101619.28;5067174;28;20618;-73
2023/09/08 01:52:48;;;;;;;15.50;9.43;;;;;;;16.25;100.00;101617.91;5057025;28;20498;-74
2023/09/08 01:55:15;;;;;;;16.48;8.50;;;;;;;16.19;100.00;101611.47;5064441;28;20028;-74
2023/09/08 01:57:40;;;;;;;17.20;8.93;;;;;;;16.14;100.00;101611.34;5071736;28;20428;-74
2023/09/08 02:00:06;;;;;;;19.95;11.15;;;;;;;16.19;100.00;101620.41;5056382;28;20052;-74
2023/09/08 02:02:31;;;;;;;16.00;9.30;;;;;;;16.12;100.00;101611.53;5066785;28;20051;-74
2023/09/08 02:04:57;;;;;;;15.73;8.93;;;;;;;16.07;100.00;101614.03;5062040;28;20079;-74
2023/09/08 02:07:22;;;;;;;13.68;8.70;;;;;;;16.07;100.00;101614.03;5056958;28;20487;-74
2023/09/08 02:09:47;;;;;;;15.70;8.65;;;;;;;16.08;100.00;101606.78;5054460;28;20460;-74
2023/09/08 02:12:13;;;;;;;16.02;8.73;;;;;;;16.13;100.00;101607.78;5064238;28;20093;-74
2023/09/08 02:14:38;;;;;;;14.80;8.02;;;;;;;16.08;100.00;101601.41;5071073;28;20035;-74
2023/09/08 02:17:04;;;;;;;16.25;9.32;;;;;;;16.10;100.00;101608.22;5070942;28;20029;-74
2023/09/08 02:19:29;;;;;;;18.55;11.30;;;;;;;16.10;100.00;101605.53;5070992;28;20077;-74
2023/09/08 02:21:55;;;;;;;13.25;8.27;;;;;;;16.02;100.00;101600.41;5056130;28;20056;-74
2023/09/08 02:24:20;;;;;;;15.45;8.85;;;;;;;15.92;100.00;101591.97;5062561;28;20032;-74
2023/09/08 02:26:45;;;;;;;18.10;9.43;;;;;;;15.99;100.00;101598.97;5071086;28;20040;-74
2023/09/08 02:29:11;;;;;;;16.25;9.02;;;;;;;15.90;100.00;101597.56;5070334;28;20657;-74
2023/09/08 02:31:36;;;;;;;19.38;10.35;;;;;;;15.96;100.00;101602.09;5055657;28;20076;-74
2023/09/08 02:34:03;;;;;;;17.73;10.65;;;;;;;15.99;100.00;101598.16;5068444;28;20037;-74
2023/09/08 02:36:28;;;;;;;16.50;10.13;;;;;;;15.96;100.00;101599.41;5070704;28;20056;-74
2023/09/08 02:38:56;;;;;;;15.23;8.85;;;;;;;15.90;100.00;101589.50;5063866;28;20043;-74
2023/09/08 02:41:23;;;;;;;16.02;9.45;;;;;;;15.92;100.00;101591.97;5054443;28;20025;-74
2023/09/08 02:43:49;;;;;;;16.55;9.65;;;;;;;15.96;100.00;101594.00;5064712;28;20052;-74
2023/09/08 02:46:14;;;;;;;16.80;9.73;;;;;;;15.90;100.00;101581.44;5054322;28;20050;-74
2023/09/08 02:48:40;;;;;;;15.82;9.75;;;;;;;15.92;100.00;101592.78;5066794;28;20036;-74
2023/09/08 02:51:06;;;;;;;19.42;11.25;;;;;;;15.85;100.00;101597.38;5070322;28;20376;-74
2023/09/08 02:53:31;;;;;;;19.85;12.07;;;;;;;15.85;100.00;101596.53;5063154;28;20074;-74
2023/09/08 02:55:58;;;;;;;17.63;9.70;;;;;;;15.85;100.00;101604.59;5056252;28;20120;-74
2023/09/08 02:58:24;;;;;;;19.65;10.80;;;;;;;15.86;100.00;101604.41;5069735;28;20500;-74
2023/09/08 03:00:51;;;;;;;18.75;10.73;;;;;;;15.81;100.00;101601.53;5070022;28;20028;-74
2023/09/08 03:03:18;;;;;;;17.70;10.32;;;;;;;15.68;100.00;101596.16;5061085;28;20089;-74
2023/09/08 03:05:43;;;;;;;19.48;10.75;;;;;;;15.63;100.00;101593.28;5054595;28;20095;-74
2023/09/08 03:08:08;;;;;;;15.73;9.20;;;;;;;15.67;100.00;101595.34;5070102;28;20063;-74
2023/09/08 03:10:34;;;;;;;16.95;10.18;;;;;;;15.69;100.00;101598.69;5063813;28;20047;-74
2023/09/08 03:13:00;;;;;;;17.17;10.45;;;;;;;15.62;100.00;101592.47;5061347;28;20033;-74
2023/09/08 03:15:27;;;;;;;16.20;9.90;;;;;;;15.54;100.00;101593.53;5069210;28;20039;-74
2023/09/08 03:17:54;;;;;;;17.83;10.65;;;;;;;15.49;100.00;101587.13;5066418;28;21054;-74
2023/09/08 03:20:19;;;;;;;17.30;10.40;;;;;;;15.50;100.00;101592.28;5049292;28;20036;-74
2023/09/08 03:22:45;;;;;;;16.55;9.63;;;;;;;15.48;100.00;101594.38;5065813;28;20021;-74
2023/09/08 03:25:10;;;;;;;16.70;9.38;;;;;;;15.53;100.00;101599.91;5059879;28;20037;-74
2023/09/08 03:27:35;;;;;;;18.27;10.13;;;;;;;15.59;100.00;101597.41;5050505;28;20072;-74
2023/09/08 03:30:01;;;;;;;16.33;8.65;;;;;;;15.54;100.00;101595.38;5061536;28;20043;-74
2023/09/08 03:32:28;;;;;;;16.42;9.48;;;;;;;15.57;100.00;101598.47;5061315;28;20504;-74
2023/09/08 03:34:54;;;;;;;17.95;9.40;;;;;;;15.48;100.00;101583.63;5069587;28;20043;-74
2023/09/08 03:37:19;;;;;;;16.17;8.45;;;;;;;15.56;100.00;101594.16;5052911;28;20056;-74
2023/09/08 03:39:44;;;;;;;14.93;8.25;;;;;;;15.55;100.00;101584.41;5067017;28;20035;-74
2023/09/08 03:42:10;;;;;;;16.20;9.40;;;;;;;15.44;100.00;101571.63;5059198;28;20033;-74
2023/09/08 03:44:35;;;;;;;16.63;8.88;;;;;;;15.51;100.00;101582.34;5068050;28;20036;-74
2023/09/08 03:47:02;;;;;;;17.38;9.90;;;;;;;15.59;100.00;101587.53;5063098;28;20044;-74
2023/09/08 03:49:27;;;;;;;18.20;10.18;;;;;;;15.61;100.00;101584.59;5048898;28;20031;-74
2023/09/08 03:51:53;;;;;;;17.40;10.32;;;;;;;15.60;100.00;101582.97;5066485;28;20032;-74
2023/09/08 03:54:18;;;;;;;18.70;10.25;;;;;;;15.55;100.00;101581.72;5051499;28;20032;-74
2023/09/08 03:56:43;;;;;;;26.75;11.25;;;;;;;15.53;100.00;101586.47;5069275;28;20040;-74
2023/09/08 03:59:09;;;;;;;21.17;11.80;;;;;;;15.54;100.00;101590.00;5058906;28;20081;-74
2023/09/08 04:01:34;;;;;;;19.45;11.55;;;;;;;15.54;100.00;101584.63;5060101;28;20044;-74
2023/09/08 04:03:59;;;;;;;18.75;11.68;;;;;;;15.54;100.00;101585.47;5048650;28;20123;-74
2023/09/08 04:06:25;;;;;;;20.17;10.68;;;;;;;15.55;100.00;101580.91;5049942;28;20056;-74
2023/09/08 04:08:50;;;;;;;17.98;11.05;;;;;;;15.47;100.00;101576.56;5065226;28;20044;-73
2023/09/08 04:11:15;;;;;;;19.35;11.88;;;;;;;15.48;100.00;101588.16;5063211;28;20037;-74
2023/09/08 04:13:41;;;;;;;18.70;11.65;;;;;;;15.52;100.00;101581.31;5049978;28;20053;-74
2023/09/08 04:16:06;;;;;;;17.10;9.85;;;;;;;15.53;100.00;101577.59;5061119;28;20102;-74
2023/09/08 04:18:32;;;;;;;20.50;11.38;;;;;;;15.52;100.00;101579.47;5065097;28;20036;-74
2023/09/08 04:20:57;;;;;;;19.13;11.23;;;;;;;15.45;100.00;101575.13;5068717;28;20068;-74
2023/09/08 04:23:22;;;;;;;16.58;9.93;;;;;;;15.46;100.00;101583.00;5067673;28;20036;-74
2023/09/08 04:25:48;;;;;;;19.88;12.85;;;;;;;15.41;100.00;101572.06;5065175;28;20061;-74
2023/09/08 04:28:13;;;;;;;16.48;9.50;;;;;;;15.43;100.00;101572.69;5055765;28;20091;-74
2023/09/08 04:30:39;;;;;;;20.15;11.18;;;;;;;15.44;100.00;101578.88;5065927;28;20189;-74
2023/09/08 04:33:04;;;;;;;17.75;10.65;;;;;;;15.45;100.00;101575.13;5057925;28;20041;-74
2023/09/08 04:35:29;;;;;;;19.17;11.93;;;;;;;15.34;100.00;101571.25;5062119;28;20033;-74
2023/09/08 04:37:55;;;;;;;19.73;11.95;;;;;;;15.30;100.00;101573.53;5068979;28;20028;-74
2023/09/08 04:40:20;;;;;;;19.38;12.23;;;;;;;15.37;100.00;101573.50;5053934;28;20056;-74
2023/09/08 04:42:45;;;;;;;17.50;11.13;;;;;;;15.41;100.00;101571.22;5068634;28;20102;-74
2023/09/08 04:45:11;;;;;;;18.42;9.52;;;;;;;15.43;100.00;101570.00;5060582;28;20061;-74
2023/09/08 04:47:37;;;;;;;16.48;9.60;;;;;;;15.42;100.00;101572.88;5068640;28;20133;-74
2023/09/08 04:50:03;;;;;;;19.30;10.57;;;;;;;15.48;100.00;101572.03;5064701;28;20064;-74
2023/09/08 04:52:28;;;;;;;22.50;12.18;;;;;;;15.46;100.00;101571.44;5059984;28;20123;-74
2023/09/08 04:54:54;;;;;;;20.77;11.45;;;;;;;15.44;100.00;101582.38;5052566;28;20113;-74
2023/09/08 04:57:19;;;;;;;19.20;11.27;;;;;;;15.44;100.00;101581.56;5067761;28;20029;-74
2023/09/08 04:59:44;;;;;;;17.60;10.80;;;;;;;15.45;100.00;101583.19;5054255;28;20502;-74
2023/09/08 05:02:10;;;;;;;21.25;11.82;;;;;;;15.43;100.00;101569.13;5071186;28;20033;-74
2023/09/08 05:04:35;;;;;;;18.05;11.70;;;;;;;15.48;100.00;101582.78;5058530;28;20139;-74
2023/09/08 05:07:00;;;;;;;18.73;10.80;;;;;;;15.47;100.00;101583.81;5052234;28;20083;-74
2023/09/08 05:09:26;;;;;;;18.60;11.85;;;;;;;15.45;100.00;101586.72;5060396;28;20098;-74
2023/09/08 05:11:51;;;;;;;19.10;11.63;;;;;;;15.43;100.00;101577.19;5071864;28;20024;-74
2023/09/08 05:14:16;;;;;;;18.80;10.65;;;;;;;15.49;100.00;101582.56;5053625;28;20033;-74
2023/09/08 05:16:46;;;;;;;20.00;10.48;;;;;;;15.49;100.00;101582.56;5064780;28;20024;-73
2023/09/08 05:19:15;;;;;;;21.25;11.68;;;;;;;15.49;100.00;101581.75;5070462;28;20119;-74
2023/09/08 05:21:41;;;;;;;17.75;11.60;;;;;;;15.42;100.00;101579.06;5056272;28;20052;-74
2023/09/08 05:24:08;;;;;;;19.55;11.80;;;;;;;15.46;100.00;101592.94;5055625;28;20029;-74
2023/09/08 05:26:36;;;;;;;17.25;11.02;;;;;;;15.51;100.00;101590.41;5068750;28;20033;-74
2023/09/08 05:29:01;;;;;;;19.20;10.88;;;;;;;15.57;100.00;101592.28;5064901;28;20450;-74
2023/09/08 05:31:26;;;;;;;24.98;11.45;;;;;;;15.54;100.00;101592.69;5061388;28;20021;-74
2023/09/08 05:33:52;;;;;;;20.27;12.68;;;;;;;15.56;100.00;101594.16;5058368;28;20500;-74
2023/09/08 05:36:17;;;;;;;19.77;10.82;;;;;;;15.58;100.00;101588.53;5061430;28;20123;-74
2023/09/08 05:38:43;;;;;;;21.80;12.82;;;;;;;15.67;100.00;101595.34;5066942;28;20032;-74
2023/09/08 05:41:08;;;;;;;21.27;13.00;;;;;;;15.72;100.00;101597.44;5064196;28;20032;-74
2023/09/08 05:43:33;;;;;;;22.38;11.90;;;;;;;15.74;100.00;101596.16;5052485;28;20027;-74
2023/09/08 05:45:59;;;;;;;18.90;11.63;;;;;;;15.77;100.00;101594.91;5058242;28;20041;-74
2023/09/08 05:48:24;;;;;;;20.35;11.05;;;;;;;15.85;100.00;101602.75;5071568;28;20034;-74
2023/09/08 05:50:49;;;;;;;23.63;14.95;;;;;;;15.89;100.00;101598.59;5070113;28;20450;-74
2023/09/08 05:53:15;;;;;;;21.70;12.07;;;;;;;15.99;100.00;101603.53;5063530;28;20033;-74
2023/09/08 05:55:40;;;;;;;20.52;12.70;;;;;;;16.02;100.00;101597.72;5059724;28;20426;-74
2023/09/08 05:58:07;;;;;;;21.48;11.80;;;;;;;16.12;100.00;101595.38;5064383;28;20024;-74
2023/09/08 06:00:32;;;;;;;20.45;11.48;;;;;;;16.21;100.00;101601.34;5071213;28;20062;-74
2023/09/08 06:02:58;;;;;;;18.35;11.23;;;;;;;16.22;100.00;101600.31;5066096;28;20043;-74
2023/09/08 06:05:24;;;;;;;18.90;11.80;;;;;;;16.28;100.00;101598.63;5058941;28;20040;-74
2023/09/08 06:07:49;;;;;;;21.20;11.48;;;;;;;16.30;100.00;101596.53;5069698;28;20071;-74
2023/09/08 06:10:14;;;;;;;21.58;12.30;;;;;;;16.42;100.00;101603.69;5067701;28;20075;-73
2023/09/08 06:12:40;;;;;;;22.40;13.73;;;;;;;16.52;100.00;101600.53;5070087;28;20116;-74
2023/09/08 06:15:06;;;;;;;22.38;14.70;;;;;;;16.54;100.00;101587.66;5060631;28;20487;-74
2023/09/08 06:17:31;;;;;;;23.83;13.98;;;;;;;16.73;100.00;101609.28;5071204;28;20063;-74
2023/09/08 06:19:57;;;;;;;21.08;13.27;;;;;;;16.82;100.00;101603.44;5070915;28;20496;-74
2023/09/08 06:22:22;;;;;;;23.23;14.88;;;;;;;16.90;100.00;101605.06;5070987;28;20078;-74
2023/09/08 06:24:47;;;;;;;21.48;13.50;;;;;;;17.04;100.00;101603.88;5066684;28;20039;-74
2023/09/08 06:27:14;;;;;;;20.67;13.45;;;;;;;17.12;100.00;101610.03;5055881;28;20119;-74
2023/09/08 06:29:43;;;;;;;23.90;15.15;;;;;;;17.21;100.00;101612.25;5064143;28;20036;-74
2023/09/08 06:32:08;;;;;;;21.50;14.43;;;;;;;17.29;100.00;101611.09;5060462;28;20077;-74
2023/09/08 06:34:35;;;;;;;22.27;14.35;;;;;;;17.36;100.00;101609.16;5051524;28;20144;-74
2023/09/08 06:37:00;;;;;;;23.10;14.60;;;;;;;17.40;100.00;101599.59;5069036;28;20472;-74
2023/09/08 06:39:26;;;;;;;24.02;15.40;;;;;;;17.55;100.00;101612.69;5070444;28;20115;-74
2023/09/08 06:41:52;;;;;;;23.45;15.55;;;;;;;17.60;100.00;101610.16;5057369;28;20031;-74
2023/09/08 06:44:17;;;;;;;20.65;14.00;;;;;;;17.74;100.00;101617.06;5061665;28;20345;-75
2023/09/08 06:46:42;;;;;;;21.30;14.10;;;;;;;17.83;100.00;101622.19;5056098;28;20094;-75
2023/09/08 06:49:08;;;;;;;24.52;13.63;;;;;;;17.90;100.00;101612.94;5065501;28;20056;-74
2023/09/08 06:51:33;;;;;;;20.90;13.40;;;;;;;18.01;100.00;101614.06;5052084;28;20052;-72
2023/09/08 06:53:59;;;;;;;22.92;14.80;;;;;;;18.11;100.00;101624.31;5061613;28;20070;-72
2023/09/08 06:56:25;;;;;;;21.50;13.27;;;;;;;18.20;100.00;101628.34;5070058;28;20024;-73
2023/09/08 06:58:51;;;;;;;20.30;13.07;;;;;;;18.28;100.00;101619.91;5051983;28;20040;-73
2023/09/08 07:01:17;;;;;;;21.05;13.13;;;;;;;18.34;100.00;101619.03;5069499;28;20048;-73
2023/09/08 07:03:42;;;;;;;21.90;14.63;;;;;;;18.47;100.00;101630.66;5069889;28;20384;-73
2023/09/08 07:06:08;;;;;;;22.52;13.20;;;;;;;18.54;100.00;101632.22;5069733;28;20036;-73
2023/09/08 07:08:33;;;;;;;24.27;12.90;;;;;;;18.65;100.00;101636.00;5069128;28;20024;-73
2023/09/08 07:10:58;;;;;;;20.30;12.93;;;;;;;18.69;100.00;101630.97;5068413;28;20094;-74
2023/09/08 07:13:23;;;;;;;20.02;13.55;;;;;;;18.81;100.00;101637.25;5059041;28;20033;-73
2023/09/08 07:15:49;;;;;;;20.52;12.82;;;;;;;18.89;100.00;101633.38;5056053;28;20043;-73
2023/09/08 07:18:14;;;;;;;23.67;14.15;;;;;;;18.99;100.00;101630.94;5055109;28;20043;-73
2023/09/08 07:20:40;;;;;;;24.70;14.98;;;;;;;19.05;100.00;101628.13;5050253;28;20420;-73
2023/09/08 07:23:06;;;;;;;22.02;13.13;;;;;;;19.12;100.00;101628.00;5056923;28;20107;-74
2023/09/08 07:25:31;;;;;;;20.75;12.65;;;;;;;19.21;100.00;101625.78;5060169;28;20110;-74
2023/09/08 07:27:57;;;;;;;24.10;14.13;;;;;;;19.34;100.00;101633.66;5064167;28;20067;-75
2023/09/08 07:30:22;;;;;;;23.63;14.63;;;;;;;19.43;100.00;101626.81;5054558;28;20040;-73
2023/09/08 07:32:47;;;;;;;20.55;13.13;;;;;;;19.54;100.00;101629.75;5051006;28;20052;-72
2023/09/08 07:35:15;;;;;;;22.00;13.00;;;;;;;19.64;100.00;101627.25;5050309;28;20029;-72
2023/09/08 07:37:41;;;;;;;23.77;14.40;;;;;;;19.74;100.00;101629.41;5050425;28;20911;-72
2023/09/08 07:40:09;;;;;;;21.42;13.23;;;;;;;19.84;100.00;101630.44;5049502;28;20029;-77
2023/09/08 07:42:34;;;;;;;27.10;12.82;;;;;;;19.92;100.00;101619.22;5050523;28;20504;-78
2023/09/08 07:45:00;;;;;;;23.10;14.35;;;;;;;20.08;100.00;101630.38;5048621;28;20039;-77
2023/09/08 07:47:25;;;;;;;20.95;13.23;;;;;;;20.13;100.00;101628.56;5051452;28;20033;-73
2023/09/08 07:49:50;;;;;;;22.77;12.73;;;;;;;20.21;100.00;101623.84;5068648;28;20028;-73
2023/09/08 07:52:16;;;;;;;22.67;13.57;;;;;;;20.28;100.00;101625.34;5055689;28;20505;-73
2023/09/08 07:54:41;;;;;;;20.83;13.68;;;;;;;20.31;100.00;101616.72;5062196;28;20032;-74
2023/09/08 07:57:06;;;;;;;21.55;13.57;;;;;;;20.46;100.00;101624.31;5061976;28;20029;-74
2023/09/08 07:59:32;;;;;;;20.20;13.38;;;;;;;20.61;100.00;101626.47;5067327;28;20029;-74
2023/09/08 08:01:57;;;;;;;22.00;12.65;;;;;;;20.64;100.00;101623.28;5056320;28;20396;-74
2023/09/08 08:04:22;;;;;;;20.95;12.23;;;;;;;20.77;100.00;101619.44;5060840;28;20036;-74
2023/09/08 08:06:49;;;;;;;18.90;11.88;;;;;;;20.84;100.00;101617.38;5055521;28;20078;-74
2023/09/08 08:09:14;;;;;;;23.65;14.05;;;;;;;20.98;100.00;101618.69;5061541;28;20169;-74
2023/09/08 08:11:40;;;;;;;20.98;12.65;;;;;;;21.04;100.00;101613.34;5066300;28;20138;-74
2023/09/08 08:14:05;;;;;;;21.75;12.38;;;;;;;21.26;100.00;101618.84;5054093;28;20039;-74
2023/09/08 08:16:30;;;;;;;21.50;12.65;;;;;;;21.38;100.00;101617.69;5066526;28;20114;-73
2023/09/08 08:18:56;;;;;;;19.17;11.38;;;;;;;21.59;100.00;101613.38;5068630;28;20525;-73
2023/09/08 08:21:22;;;;;;;19.13;11.85;;;;;;;21.84;100.00;101621.00;5054795;28;20047;-74
2023/09/08 08:23:50;;;;;;;21.08;13.05;;;;;;;22.02;100.00;101622.56;5056072;28;20495;-73
2023/09/08 08:26:16;;;;;;;20.17;12.07;;;;;;;22.37;100.00;101626.75;5060941;28;20056;-73
2023/09/08 08:28:41;;;;;;;18.27;11.73;;;;;;;23.47;98.44;101620.81;5056843;28;20028;-73
2023/09/08 08:31:06;;;;;;;21.45;11.75;;;;;;;24.52;89.03;101622.53;5058247;28;20514;-74
2023/09/08 08:33:32;;;;;;;15.13;9.18;;;;;;;24.88;87.53;101625.28;5059569;28;20134;-73
2023/09/08 08:35:57;;;;;;;19.05;10.13;;;;;;;24.66;90.85;101622.84;5059691;28;20021;-73
2023/09/08 08:38:23;;;;;;;18.13;9.50;;;;;;;24.34;89.90;101617.59;5053792;28;20118;-73
2023/09/08 08:40:48;;;;;;;16.35;10.00;;;;;;;24.18;87.47;101627.66;5055842;28;20022;-74
2023/09/08 08:43:13;;;;;;;15.55;8.70;;;;;;;24.06;89.25;101631.44;5049101;28;20569;-74
2023/09/08 08:45:43;;;;;;;18.15;9.80;;;;;;;23.94;88.71;101625.41;5053996;28;20040;-73
2023/09/08 08:48:08;;;;;;;16.52;9.45;;;;;;;23.92;89.75;101624.03;5068145;28;20458;-73
2023/09/08 08:50:35;;;;;;;14.07;8.88;;;;;;;23.93;89.96;101628.41;5068461;28;20025;-74
2023/09/08 08:53:02;;;;;;;15.45;9.57;;;;;;;23.93;89.59;101629.22;5067950;28;20070;-73
2023/09/08 08:55:30;;;;;;;14.98;8.55;;;;;;;23.94;91.53;101621.88;5058785;28;20144;-73
2023/09/08 08:58:03;;;;;;;14.55;8.98;;;;;;;24.04;91.75;101627.34;5053819;28;20029;-73
2023/09/08 09:00:29;;;;;;;13.10;8.45;;;;;;;24.10;91.92;101618.09;5053368;28;20399;-74
2023/09/08 09:02:57;;;;;;;16.70;8.77;;;;;;;24.16;90.53;101617.03;5060320;28;20995;-74
2023/09/08 09:05:24;;;;;;;17.45;10.18;;;;;;;24.21;88.96;101622.50;5053428;28;20020;-74
2023/09/08 09:07:50;;;;;;;16.17;8.73;;;;;;;24.30;90.76;101620.03;5060623;28;20025;-74
2023/09/08 09:10:15;;;;;;;15.77;9.15;;;;;;;24.40;90.10;101630.16;5056272;28;20024;-74
2023/09/08 09:12:41;;;;;;;19.38;11.15;;;;;;;24.45;90.30;101625.56;5061269;28;20024;-74
2023/09/08 09:15:08;;;;;;;17.33;9.05;;;;;;;24.47;89.30;101625.28;5061599;28;20045;-74
2023/09/08 09:17:34;;;;;;;16.30;8.30;;;;;;;24.58;90.82;101617.94;5056132;28;20050;-74
2023/09/08 09:20:17;;;;;;;19.23;11.07;;;;;;;24.67;89.77;101629.94;5059895;28;20423;-74
2023/09/08 09:22:44;;;;;;;19.90;11.07;;;;;;;24.70;88.69;101623.94;5068137;28;20047;-74
2023/09/08 09:25:10;;;;;;;23.23;11.48;;;;;;;24.77;89.28;101627.22;5065948;28;20024;-74
2023/09/08 09:27:38;;;;;;;17.98;9.65;;;;;;;24.86;89.25;101622.00;5052261;28;20052;-74
2023/09/08 09:30:04;;;;;;;16.55;9.93;;;;;;;24.98;90.20;101624.47;5052021;28;20021;-74
2023/09/08 09:32:31;;;;;;;18.98;11.38;;;;;;;25.04;86.28;101624.16;5053975;28;20049;-74
2023/09/08 09:34:57;;;;;;;22.65;10.90;;;;;;;25.12;85.94;101629.06;5059970;28;20035;-74
2023/09/08 09:37:23;;;;;;;17.08;10.27;;;;;;;25.21;86.27;101625.84;5055365;28;20060;-74
2023/09/08 09:39:53;;;;;;;19.38;11.00;;;;;;;25.25;87.61;101610.53;5056549;28;20475;-74
2023/09/08 09:42:20;;;;;;;19.08;10.85;;;;;;;25.34;85.08;101619.78;5053504;28;20078;-74
2023/09/08 09:44:49;;;;;;;18.83;10.32;;;;;;;25.41;87.07;101623.03;5053185;28;20063;-74
2023/09/08 09:47:15;;;;;;;17.48;9.57;;;;;;;25.47;85.47;101623.84;5062070;28;20052;-73
2023/09/08 09:49:45;;;;;;;20.00;10.75;;;;;;;25.46;86.64;101623.00;5059172;28;20478;-73
2023/09/08 09:52:20;;;;;;;16.60;9.88;;;;;;;25.54;85.65;101622.47;5071153;28;20028;-73
2023/09/08 09:54:46;;;;;;;20.05;10.55;;;;;;;25.63;84.74;101624.63;5067937;28;20028;-74
2023/09/08 09:57:14;;;;;;;17.83;11.35;;;;;;;25.64;84.69;101627.06;5057740;28;20392;-73
2023/09/08 09:59:41;;;;;;;16.20;9.65;;;;;;;25.73;84.08;101622.66;5057841;28;20066;-73
2023/09/08 10:02:12;;;;;;;16.75;10.07;;;;;;;25.83;83.61;101626.44;5064617;28;20040;-74
2023/09/08 10:04:40;;;;;;;16.65;10.60;;;;;;;25.92;81.43;101624.78;5068205;28;20044;-73
2023/09/08 10:07:06;;;;;;;14.90;9.25;;;;;;;26.10;84.20;101618.69;5060993;28;20421;-73
2023/09/08 10:09:31;;;;;;;16.60;10.00;;;;;;;26.11;81.18;101609.34;5063936;28;20679;-73
2023/09/08 10:12:02;;;;;;;15.65;9.35;;;;;;;26.14;79.75;101616.19;5055776;28;20141;-73
2023/09/08 10:14:30;;;;;;;15.38;9.95;;;;;;;26.16;81.55;101620.28;5061831;28;20071;-73
2023/09/08 10:16:59;;;;;;;13.38;8.40;;;;;;;26.21;80.72;101613.97;5067856;28;20036;-73
2023/09/08 10:19:25;;;;;;;16.05;9.43;;;;;;;26.24;77.91;101616.13;5063067;28;20037;-73
2023/09/08 10:21:54;;;;;;;11.95;8.02;;;;;;;26.31;79.34;101615.81;5069629;28;20032;-74
2023/09/08 10:24:26;;;;;;;17.00;9.15;;;;;;;26.26;82.80;101602.19;5057474;28;20029;-73
2023/09/08 10:26:54;;;;;;;;;;;;;;;26.41;85.58;101611.09;5062646;28;20024;-74
2023/09/08 10:29:20;;;;;;;15.15;9.02;;;;;;;26.48;81.77;101609.94;5052589;28;20490;-73
2023/09/08 10:31:46;;;;;;;23.38;10.35;;;;;;;26.50;82.78;101611.28;5054870;28;20101;-74
2023/09/08 10:34:12;;;;;;;14.68;8.10;;;;;;;26.52;82.08;101611.84;5061447;28;20032;-74
2023/09/08 10:36:38;;;;;;;19.10;10.00;;;;;;;26.63;78.35;101615.31;5067842;28;20407;-73
2023/09/08 10:39:39;;;;;;;13.45;7.57;;;;;;;26.74;82.54;101600.44;5063249;28;20024;-73
2023/09/08 10:42:17;;;;;;;14.33;8.47;;;;;;;26.93;78.93;101603.25;5063757;28;20063;-73
2023/09/08 10:44:44;;;;;;;13.25;9.15;;;;;;;27.01;76.96;101610.03;5055097;28;20060;-74
2023/09/08 10:47:09;;;;;;;12.15;7.65;;;;;;;27.16;79.43;101603.59;5065969;28;20047;-74
2023/09/08 10:49:36;;;;;;;13.90;8.45;;;;;;;27.18;76.79;101604.16;5060064;28;20036;-74
2023/09/08 10:52:12;;;;;;;12.55;8.40;;;;;;;27.24;81.16;101603.00;5059025;28;20024;-74
2023/09/08 10:54:44;;;;;;;12.98;7.47;;;;;;;27.30;76.70;101604.56;5062522;28;20048;-75
2023/09/08 10:57:14;;;;;;;14.15;7.78;;;;;;;27.35;74.65;101599.03;5065436;28;20020;-75
2023/09/08 10:59:44;;;;;;;13.52;8.48;;;;;;;27.36;76.64;101602.59;5055584;28;20040;-72
2023/09/08 11:02:34;;;;;;;16.20;8.80;;;;;;;27.46;76.50;101603.28;5049671;28;20021;-73